Time;durP1;ratioP1;P1;durP2;ratioP2;P2;SDS_P1;SDS_P2;PMS_P1;PMS_P2;Temp;Humidity;BMP_temperature;BMP_pressure;BME280_temperature;BME280_humidity;BME280_pressure;Samples;Min_cycle;Max_cycle;Signal;HPM_P1;HPM_P2
2023/10/30 00:01:05;;;;;;;1.42;0.10;;;10.00;99.90;;;;;;5024789;28;20452;-87
2023/10/30 00:03:31;;;;;;;1.00;0.10;;;10.00;99.90;;;;;;5013517;28;20030;-90
2023/10/30 00:05:56;;;;;;;1.42;0.10;;;10.00;99.90;;;;;;5029098;28;20385;-88
2023/10/30 00:08:22;;;;;;;1.65;0.20;;;9.90;99.90;;;;;;5013130;28;20029;-88
2023/10/30 00:10:48;;;;;;;2.33;0.20;;;10.00;99.90;;;;;;5043077;28;20034;-89
2023/10/30 00:13:14;;;;;;;1.15;0.20;;;9.90;99.90;;;;;;5014401;28;20025;-86
2023/10/30 00:15:39;;;;;;;2.17;0.30;;;10.00;99.90;;;;;;5026174;28;20041;-87
2023/10/30 00:18:05;;;;;;;5.15;0.45;;;10.00;99.90;;;;;;5012582;28;20030;-89
2023/10/30 00:20:31;;;;;;;2.78;0.22;;;10.10;99.90;;;;;;5040048;28;20136;-87
2023/10/30 00:22:57;;;;;;;3.75;0.28;;;10.00;99.90;;;;;;5009542;28;20160;-89
2023/10/30 00:25:23;;;;;;;2.00;0.17;;;10.00;99.90;;;;;;5030760;28;20029;-89
2023/10/30 00:27:48;;;;;;;3.10;0.20;;;10.10;99.90;;;;;;5013953;28;20022;-88
2023/10/30 00:30:14;;;;;;;2.90;0.20;;;10.10;99.90;;;;;;5028912;28;20052;-88
2023/10/30 00:32:40;;;;;;;3.15;0.30;;;10.10;99.90;;;;;;5007235;28;20481;-88
2023/10/30 00:35:06;;;;;;;2.47;0.20;;;10.20;99.90;;;;;;5010525;28;20025;-87
2023/10/30 00:37:32;;;;;;;2.83;0.30;;;10.20;99.90;;;;;;5028234;28;20033;-86
2023/10/30 00:39:57;;;;;;;2.17;0.20;;;10.20;99.90;;;;;;5026845;28;20104;-90
2023/10/30 00:42:26;;;;;;;2.20;0.10;;;10.20;99.90;;;;;;5025955;28;20492;-89
2023/10/30 00:44:53;;;;;;;1.20;0.20;;;10.20;99.90;;;;;;5028660;28;20041;-88
2023/10/30 00:47:18;;;;;;;1.10;0.15;;;10.20;99.90;;;;;;5025096;28;20397;-88
2023/10/30 00:49:44;;;;;;;1.98;0.20;;;10.20;99.90;;;;;;5009826;28;20025;-86
2023/10/30 00:52:10;;;;;;;2.83;0.20;;;10.30;99.90;;;;;;5010800;28;20033;-88
2023/10/30 00:54:36;;;;;;;3.50;0.20;;;10.20;99.90;;;;;;5027603;28;20104;-89
2023/10/30 00:57:02;;;;;;;3.67;0.40;;;10.20;99.90;;;;;;5007790;28;20032;-87
2023/10/30 00:59:28;;;;;;;1.38;0.20;;;10.30;99.90;;;;;;5026434;28;20029;-88
2023/10/30 01:01:53;;;;;;;3.28;0.20;;;10.30;99.90;;;;;;5026001;28;20481;-86
2023/10/30 01:04:19;;;;;;;1.58;0.22;;;10.30;99.90;;;;;;5026194;28;20035;-89
2023/10/30 01:06:45;;;;;;;2.70;0.20;;;10.30;99.90;;;;;;5025877;28;20033;-87
2023/10/30 01:09:11;;;;;;;2.10;0.30;;;10.40;99.90;;;;;;5035443;28;20029;-89
2023/10/30 01:11:37;;;;;;;3.45;0.20;;;10.40;99.90;;;;;;5026374;28;20041;-90
2023/10/30 01:14:03;;;;;;;2.03;0.20;;;10.40;99.90;;;;;;5042431;28;20029;-91
2023/10/30 01:16:29;;;;;;;1.20;0.17;;;10.40;99.90;;;;;;5013257;28;20078;-89
2023/10/30 01:18:54;;;;;;;3.20;0.30;;;10.40;99.90;;;;;;5008169;28;20040;-89
2023/10/30 01:21:20;;;;;;;3.10;0.30;;;10.40;99.90;;;;;;5043484;28;20026;-89
2023/10/30 01:23:46;;;;;;;1.42;0.10;;;10.40;99.90;;;;;;5029836;28;20025;-87
2023/10/30 01:26:12;;;;;;;2.58;0.35;;;10.50;99.90;;;;;;5026046;28;20116;-87
2023/10/30 01:28:38;;;;;;;2.78;0.20;;;10.40;99.90;;;;;;5026364;28;20470;-87
2023/10/30 01:31:04;;;;;;;1.70;0.10;;;10.40;99.90;;;;;;5028403;28;20029;-88
2023/10/30 01:33:31;;;;;;;3.20;0.30;;;10.40;99.90;;;;;;5012117;28;20040;-88
2023/10/30 01:35:56;;;;;;;2.70;0.20;;;10.50;99.90;;;;;;5029083;28;20041;-88
2023/10/30 01:38:22;;;;;;;1.77;0.20;;;10.40;99.90;;;;;;5033666;28;20034;-91
2023/10/30 01:40:49;;;;;;;2.13;0.20;;;10.40;99.90;;;;;;5039046;28;20033;-89
2023/10/30 01:43:14;;;;;;;6.03;0.50;;;10.50;99.90;;;;;;5022490;28;20505;-88
2023/10/30 01:45:40;;;;;;;4.35;0.30;;;10.50;99.90;;;;;;5044150;28;20026;-89
2023/10/30 01:48:06;;;;;;;7.47;0.50;;;10.60;99.90;;;;;;5043419;28;20410;-88
2023/10/30 01:50:33;;;;;;;4.68;0.30;;;10.80;99.90;;;;;;5026806;28;20037;-87
2023/10/30 01:53:01;;;;;;;1.95;0.20;;;10.80;99.90;;;;;;5024579;28;20492;-89
2023/10/30 01:55:27;;;;;;;3.92;0.30;;;10.60;99.90;;;;;;5026041;28;20025;-86
2023/10/30 01:57:54;;;;;;;3.70;0.20;;;10.50;99.90;;;;;;5024278;28;20109;-86
2023/10/30 02:00:20;;;;;;;4.18;0.10;;;10.60;99.90;;;;;;5025167;28;20029;-88
2023/10/30 02:02:47;;;;;;;2.33;0.20;;;10.60;99.90;;;;;;5008110;28;20033;-90
2023/10/30 02:05:13;;;;;;;2.78;0.20;;;10.50;99.90;;;;;;5011668;28;20030;-90
2023/10/30 02:07:39;;;;;;;2.33;0.20;;;10.70;99.90;;;;;;5009758;28;20032;-86
2023/10/30 02:10:08;;;;;;;2.70;0.38;;;10.70;99.90;;;;;;5028477;28;20029;-88
2023/10/30 02:12:37;;;;;;;2.55;0.40;;;10.70;99.90;;;;;;5009228;28;20021;-90
2023/10/30 02:15:03;;;;;;;0.77;0.15;;;10.60;99.90;;;;;;5035377;28;20029;-90
2023/10/30 02:17:29;;;;;;;3.42;0.20;;;10.60;99.90;;;;;;5010235;28;20025;-88
2023/10/30 02:19:55;;;;;;;3.47;0.30;;;10.60;99.90;;;;;;5008036;28;20026;-89
2023/10/30 02:22:20;;;;;;;2.25;0.20;;;10.70;99.90;;;;;;5011601;28;20026;-91
2023/10/30 02:24:46;;;;;;;2.65;0.30;;;10.60;99.90;;;;;;5025678;28;20026;-89
2023/10/30 02:27:12;;;;;;;1.52;0.20;;;10.60;99.90;;;;;;5009553;28;20037;-89
2023/10/30 02:29:37;;;;;;;3.72;0.20;;;10.60;99.90;;;;;;5012079;28;20110;-88
2023/10/30 02:32:04;;;;;;;3.65;0.22;;;10.60;99.90;;;;;;5011917;28;20025;-87
2023/10/30 02:34:29;;;;;;;4.35;0.30;;;10.70;99.90;;;;;;5021272;28;20029;-88
2023/10/30 02:36:56;;;;;;;3.08;0.20;;;10.70;99.90;;;;;;5023027;28;20032;-89
2023/10/30 02:39:22;;;;;;;3.35;0.20;;;10.60;99.90;;;;;;5040661;28;20025;-88
2023/10/30 02:41:48;;;;;;;2.78;0.20;;;10.60;99.90;;;;;;5011499;28;20497;-90
2023/10/30 02:44:13;;;;;;;2.85;0.30;;;10.60;99.90;;;;;;5042804;28;20132;-90
2023/10/30 02:46:39;;;;;;;2.60;0.13;;;10.60;99.90;;;;;;5023968;28;20029;-86
2023/10/30 02:49:05;;;;;;;1.63;0.20;;;10.50;99.90;;;;;;5026720;28;20099;-88
2023/10/30 02:51:31;;;;;;;2.13;0.20;;;10.50;99.90;;;;;;5011188;28;20033;-87
2023/10/30 02:53:56;;;;;;;1.55;0.20;;;10.60;99.90;;;;;;5007779;28;20021;-87
2023/10/30 02:56:22;;;;;;;4.40;0.25;;;10.60;99.90;;;;;;5005742;28;20486;-88
2023/10/30 02:58:48;;;;;;;1.23;0.10;;;10.50;99.90;;;;;;5027749;28;20050;-89
2023/10/30 03:01:14;;;;;;;1.67;0.10;;;10.50;99.90;;;;;;5020670;28;20128;-89
2023/10/30 03:03:40;;;;;;;2.35;0.10;;;10.50;99.90;;;;;;5025779;28;20105;-87
2023/10/30 03:06:06;;;;;;;2.05;0.10;;;10.50;99.90;;;;;;5007304;28;20034;-88
2023/10/30 03:08:31;;;;;;;3.00;0.40;;;10.40;99.90;;;;;;5027774;28;20029;-86
2023/10/30 03:10:57;;;;;;;2.70;0.20;;;10.40;99.90;;;;;;5023703;28;20034;-90
2023/10/30 03:13:23;;;;;;;1.58;0.20;;;10.40;99.90;;;;;;5026918;28;20022;-88
2023/10/30 03:15:49;;;;;;;1.83;0.20;;;10.40;99.90;;;;;;5045940;28;20064;-88
2023/10/30 03:18:15;;;;;;;1.30;0.10;;;10.50;99.90;;;;;;5026375;28;20026;-87
2023/10/30 03:20:41;;;;;;;2.30;0.20;;;10.40;99.90;;;;;;5028377;28;20159;-86
2023/10/30 03:23:07;;;;;;;2.85;0.20;;;10.40;99.90;;;;;;5013295;28;20473;-88
2023/10/30 03:25:33;;;;;;;1.40;0.20;;;10.40;99.90;;;;;;5027070;28;20033;-88
2023/10/30 03:27:59;;;;;;;1.83;0.20;;;10.40;99.90;;;;;;5026158;28;20430;-88
2023/10/30 03:30:25;;;;;;;2.45;0.10;;;10.40;99.90;;;;;;5028697;28;20072;-89
2023/10/30 03:32:50;;;;;;;2.33;0.20;;;10.40;99.90;;;;;;5029867;28;20025;-90
2023/10/30 03:35:16;;;;;;;1.67;0.10;;;10.40;99.90;;;;;;5038635;28;20312;-89
2023/10/30 03:37:42;;;;;;;3.05;0.10;;;10.40;99.90;;;;;;5010598;28;20435;-88
2023/10/30 03:40:10;;;;;;;0.90;0.10;;;10.40;99.90;;;;;;5028051;28;20028;-89
2023/10/30 03:42:35;;;;;;;2.13;0.20;;;10.30;99.90;;;;;;5024664;28;20084;-87
2023/10/30 03:45:01;;;;;;;1.15;0.10;;;10.30;99.90;;;;;;5023080;28;20069;-90
2023/10/30 03:47:27;;;;;;;1.33;0.10;;;10.30;99.90;;;;;;5030236;28;20033;-88
2023/10/30 03:49:53;;;;;;;1.65;0.22;;;10.30;99.90;;;;;;5031276;28;20375;-89
2023/10/30 03:52:19;;;;;;;1.63;0.10;;;10.30;99.90;;;;;;5029521;28;20033;-91
2023/10/30 03:54:45;;;;;;;1.30;0.10;;;10.30;99.90;;;;;;5027521;28;20033;-87
2023/10/30 03:57:11;;;;;;;0.95;0.10;;;10.30;99.90;;;;;;5028393;28;20030;-88
2023/10/30 03:59:36;;;;;;;1.08;0.10;;;10.20;99.90;;;;;;5027580;28;20044;-89
2023/10/30 04:02:02;;;;;;;1.05;0.10;;;10.30;99.90;;;;;;5009261;28;20040;-88
2023/10/30 04:04:28;;;;;;;2.80;0.20;;;10.20;99.90;;;;;;5013525;28;20092;-91
2023/10/30 04:06:54;;;;;;;1.58;0.10;;;10.10;99.90;;;;;;5029015;28;20045;-88
2023/10/30 04:09:19;;;;;;;2.08;0.20;;;10.10;99.90;;;;;;5025893;28;20500;-88
2023/10/30 04:11:46;;;;;;;1.33;0.43;;;10.10;99.90;;;;;;5026372;28;20080;-88
2023/10/30 04:14:12;;;;;;;1.52;0.00;;;10.10;99.90;;;;;;5031179;28;20097;-88
2023/10/30 04:16:38;;;;;;;1.15;0.10;;;10.00;99.90;;;;;;5013892;28;20108;-89
2023/10/30 04:19:03;;;;;;;0.85;0.10;;;10.20;99.90;;;;;;5024905;28;20022;-89
2023/10/30 04:21:29;;;;;;;0.85;0.10;;;10.10;99.90;;;;;;5013854;28;20468;-88
2023/10/30 04:23:55;;;;;;;2.22;0.10;;;10.10;99.90;;;;;;5028007;28;20141;-88
2023/10/30 04:26:21;;;;;;;1.35;0.10;;;10.10;99.90;;;;;;5026904;28;20034;-88
2023/10/30 04:28:47;;;;;;;0.77;0.10;;;10.00;99.90;;;;;;5026423;28;20036;-89
2023/10/30 04:31:12;;;;;;;1.17;0.10;;;10.00;99.90;;;;;;5025969;28;20045;-88
2023/10/30 04:33:39;;;;;;;1.98;0.10;;;10.10;99.90;;;;;;5029236;28;20040;-91
2023/10/30 04:36:05;;;;;;;0.90;0.10;;;9.90;99.90;;;;;;5025878;28;20075;-90
2023/10/30 04:38:31;;;;;;;0.82;0.10;;;10.00;99.90;;;;;;5025992;28;20033;-89
2023/10/30 04:41:01;;;;;;;1.30;0.10;;;10.00;99.90;;;;;;5028311;28;20026;-88
2023/10/30 04:43:27;;;;;;;0.85;0.10;;;9.90;99.90;;;;;;5039781;28;20053;-87
2023/10/30 04:45:52;;;;;;;3.38;0.20;;;10.00;99.90;;;;;;5009720;28;20029;-90
2023/10/30 04:48:18;;;;;;;3.83;0.60;;;9.90;99.90;;;;;;5008593;28;20029;-88
2023/10/30 04:50:44;;;;;;;2.45;0.63;;;9.90;99.90;;;;;;5026193;28;20486;-90
2023/10/30 04:53:09;;;;;;;2.75;0.10;;;9.90;99.90;;;;;;5025405;28;20017;-88
2023/10/30 04:55:35;;;;;;;1.08;0.10;;;9.90;99.90;;;;;;5010441;28;20025;-88
2023/10/30 04:58:01;;;;;;;0.50;0.10;;;9.90;99.90;;;;;;5028877;28;20048;-87
2023/10/30 05:00:26;;;;;;;1.33;0.10;;;9.80;99.90;;;;;;5020959;28;20044;-89
2023/10/30 05:02:52;;;;;;;2.45;0.10;;;10.00;99.90;;;;;;5008894;28;20025;-89
2023/10/30 05:05:18;;;;;;;2.45;0.10;;;9.90;99.90;;;;;;5024708;28;20025;-90
2023/10/30 05:07:44;;;;;;;1.95;0.45;;;9.80;99.90;;;;;;5001973;28;20403;-90
2023/10/30 05:10:11;;;;;;;1.45;0.20;;;9.80;99.90;;;;;;5026311;28;20481;-88
2023/10/30 05:12:37;;;;;;;0.80;0.10;;;9.80;99.90;;;;;;5028934;28;20037;-87
2023/10/30 05:15:04;;;;;;;1.15;0.10;;;9.80;99.90;;;;;;5029907;28;20112;-89
2023/10/30 05:17:30;;;;;;;0.73;0.10;;;9.80;99.90;;;;;;5011576;28;20030;-88
2023/10/30 05:19:56;;;;;;;1.52;0.10;;;9.80;99.90;;;;;;5029004;28;20033;-89
2023/10/30 05:22:21;;;;;;;1.25;0.10;;;9.80;99.90;;;;;;5023443;28;20034;-91
2023/10/30 05:24:47;;;;;;;1.50;0.10;;;9.80;99.90;;;;;;5024446;28;20054;-88
2023/10/30 05:27:13;;;;;;;1.65;0.10;;;9.70;99.90;;;;;;5026682;28;20040;-88
2023/10/30 05:29:38;;;;;;;1.02;0.10;;;9.70;99.90;;;;;;5038644;28;20033;-88
2023/10/30 05:32:06;;;;;;;1.30;0.05;;;9.70;99.90;;;;;;5040035;28;20038;-87
2023/10/30 05:34:36;;;;;;;1.00;0.00;;;9.70;99.90;;;;;;5007386;28;20029;-86
2023/10/30 05:37:06;;;;;;;2.47;0.10;;;9.70;99.90;;;;;;5026388;28;20029;-86
2023/10/30 05:39:32;;;;;;;3.90;0.10;;;9.70;99.90;;;;;;5021971;28;20562;-90
2023/10/30 05:41:58;;;;;;;1.20;0.10;;;9.70;99.90;;;;;;5023697;28;20215;-91
2023/10/30 05:44:24;;;;;;;1.17;0.15;;;9.60;99.90;;;;;;5026661;28;20053;-90
2023/10/30 05:46:50;;;;;;;1.35;0.10;;;9.60;99.90;;;;;;5024380;28;20031;-90
2023/10/30 05:49:15;;;;;;;3.05;0.20;;;9.60;99.90;;;;;;5041003;28;20048;-90
2023/10/30 05:51:41;;;;;;;0.52;0.10;;;9.60;99.90;;;;;;5024416;28;20033;-90
2023/10/30 05:54:07;;;;;;;1.15;0.13;;;9.60;99.90;;;;;;5041127;28;20545;-87
2023/10/30 05:56:32;;;;;;;1.40;0.10;;;9.70;99.90;;;;;;5041213;28;20025;-89
2023/10/30 05:58:58;;;;;;;1.58;0.45;;;9.60;99.90;;;;;;5028253;28;20030;-90
2023/10/30 06:01:24;;;;;;;1.17;0.30;;;9.60;99.90;;;;;;5038528;28;20073;-88
2023/10/30 06:03:49;;;;;;;2.42;0.10;;;9.60;99.90;;;;;;5024730;28;20021;-89
2023/10/30 06:06:15;;;;;;;2.58;0.20;;;9.60;99.90;;;;;;5026432;28;20466;-89
2023/10/30 06:08:40;;;;;;;1.65;0.10;;;9.70;99.90;;;;;;5027596;28;20021;-89
2023/10/30 06:11:06;;;;;;;4.13;0.20;;;9.60;99.90;;;;;;5027423;28;20413;-89
2023/10/30 06:13:32;;;;;;;1.40;0.10;;;9.60;99.90;;;;;;5025143;28;20013;-89
2023/10/30 06:15:58;;;;;;;0.40;0.10;;;9.60;99.90;;;;;;5027471;28;20730;-90
2023/10/30 06:18:24;;;;;;;2.70;0.17;;;9.60;99.90;;;;;;5026753;28;20097;-89
2023/10/30 06:20:49;;;;;;;1.67;0.10;;;9.70;99.90;;;;;;5023225;28;20067;-90
2023/10/30 06:23:15;;;;;;;1.13;0.10;;;9.60;99.90;;;;;;5025465;28;20100;-88
2023/10/30 06:25:41;;;;;;;1.20;0.20;;;9.70;99.90;;;;;;5036345;28;20033;-88
2023/10/30 06:28:10;;;;;;;1.55;0.10;;;9.60;99.90;;;;;;5027586;28;20029;-87
2023/10/30 06:30:36;;;;;;;2.17;0.10;;;9.70;99.90;;;;;;5024154;28;20038;-89
2023/10/30 06:33:01;;;;;;;0.40;0.00;;;9.60;99.90;;;;;;5027623;28;20022;-88
2023/10/30 06:35:27;;;;;;;5.63;0.20;;;9.60;99.90;;;;;;5027264;28;20485;-88
2023/10/30 06:37:53;;;;;;;1.52;0.10;;;9.60;99.90;;;;;;5008598;28;20025;-88
2023/10/30 06:40:26;;;;;;;1.52;0.15;;;9.60;99.90;;;;;;5023372;28;20426;-89
2023/10/30 06:42:52;;;;;;;0.93;0.38;;;9.50;99.90;;;;;;5025324;28;20017;-88
2023/10/30 06:45:17;;;;;;;0.93;0.10;;;9.60;99.90;;;;;;5042442;28;20123;-87
2023/10/30 06:47:44;;;;;;;0.70;0.03;;;9.50;99.90;;;;;;5040038;28;20053;-90
2023/10/30 06:50:09;;;;;;;2.30;0.10;;;9.60;99.90;;;;;;5023577;28;20038;-87
2023/10/30 06:52:35;;;;;;;1.38;0.10;;;9.50;99.90;;;;;;5022595;28;20120;-91
2023/10/30 06:55:00;;;;;;;1.92;0.22;;;9.60;99.90;;;;;;5026557;28;20107;-88
2023/10/30 06:57:27;;;;;;;3.63;0.20;;;9.50;99.90;;;;;;5024275;28;20032;-90
2023/10/30 06:59:55;;;;;;;2.35;0.10;;;9.60;99.90;;;;;;5039139;28;20025;-88
2023/10/30 07:02:21;;;;;;;3.50;0.30;;;9.60;99.90;;;;;;5021382;28;20171;-89
2023/10/30 07:04:47;;;;;;;1.88;0.10;;;9.60;99.90;;;;;;5006227;28;20171;-87
2023/10/30 07:07:12;;;;;;;2.92;0.13;;;9.60;99.90;;;;;;5005404;28;20065;-89
2023/10/30 07:09:38;;;;;;;2.92;0.10;;;9.70;99.90;;;;;;5024984;28;20493;-90
2023/10/30 07:12:04;;;;;;;1.33;0.10;;;9.70;99.90;;;;;;5033368;28;20041;-89
2023/10/30 07:14:29;;;;;;;1.45;0.10;;;9.80;99.90;;;;;;5040654;28;20026;-90
2023/10/30 07:16:55;;;;;;;0.65;0.10;;;9.90;99.90;;;;;;5007646;28;20168;-90
2023/10/30 07:19:23;;;;;;;1.10;0.15;;;9.80;99.90;;;;;;5042384;28;20029;-91
2023/10/30 07:21:48;;;;;;;1.15;0.10;;;9.90;99.90;;;;;;5034640;28;20033;-88
2023/10/30 07:24:14;;;;;;;2.10;0.10;;;9.90;99.90;;;;;;5005447;28;20026;-90
2023/10/30 07:26:40;;;;;;;1.83;0.10;;;10.00;99.90;;;;;;5012536;28;20033;-93
2023/10/30 07:29:05;;;;;;;1.73;0.10;;;10.00;99.90;;;;;;5009965;28;20025;-89
2023/10/30 07:31:31;;;;;;;2.08;0.20;;;10.10;99.90;;;;;;5024576;28;20061;-89
2023/10/30 07:33:58;;;;;;;2.45;0.10;;;10.10;99.90;;;;;;5042228;28;20089;-91
2023/10/30 07:36:24;;;;;;;1.23;0.10;;;10.30;99.90;;;;;;5022836;28;20041;-88
2023/10/30 07:38:49;;;;;;;3.30;0.13;;;10.30;99.90;;;;;;5022194;28;20026;-87
2023/10/30 07:41:15;;;;;;;1.92;0.17;;;10.30;99.90;;;;;;5036691;28;20030;-87
2023/10/30 07:43:41;;;;;;;1.85;0.20;;;10.40;99.90;;;;;;5022862;28;20048;-90
2023/10/30 07:46:07;;;;;;;3.38;0.20;;;10.40;99.90;;;;;;5006305;28;20030;-90
2023/10/30 07:48:32;;;;;;;2.17;0.20;;;10.50;99.90;;;;;;5023460;28;20025;-89
2023/10/30 07:51:02;;;;;;;3.25;0.20;;;10.60;99.90;;;;;;5025967;28;20113;-88
2023/10/30 07:53:43;;;;;;;2.17;0.10;;;10.60;99.90;;;;;;5017196;28;20034;-88
2023/10/30 07:56:18;;;;;;;5.00;0.20;;;10.70;99.90;;;;;;5024172;28;20509;-90
2023/10/30 07:58:44;;;;;;;2.72;0.20;;;10.70;99.90;;;;;;5022918;28;20087;-87
2023/10/30 08:01:45;;;;;;;2.47;0.20;;;10.80;99.90;;;;;;5007429;28;20065;-91
2023/10/30 08:04:13;;;;;;;1.17;0.20;;;10.80;99.90;;;;;;5020426;28;20485;-88
2023/10/30 08:07:02;;;;;;;1.05;0.10;;;10.90;99.90;;;;;;5038412;28;20034;-90
2023/10/30 08:09:59;;;;;;;3.13;0.20;;;11.00;99.90;;;;;;5020294;28;20037;-91
2023/10/30 08:12:30;;;;;;;2.58;0.20;;;11.10;99.90;;;;;;5016370;28;20107;-88
2023/10/30 08:14:59;;;;;;;2.60;0.20;;;11.10;99.90;;;;;;5021168;28;20037;-88
2023/10/30 08:17:55;;;;;;;;;;;;;;;;;;;;;
2023/10/30 08:20:31;;;;;;;1.65;0.10;;;11.30;99.90;;;;;;5020435;28;20033;-88
2023/10/30 08:22:59;;;;;;;3.47;0.20;;;11.30;99.90;;;;;;5008475;28;20041;-88
2023/10/30 08:25:26;;;;;;;2.20;0.20;;;11.40;99.90;;;;;;5009859;28;20029;-88
2023/10/30 08:27:52;;;;;;;2.67;0.20;;;11.40;99.90;;;;;;5020649;28;20566;-87
2023/10/30 08:30:21;;;;;;;3.40;0.50;;;11.50;99.90;;;;;;5003969;28;20222;-89
2023/10/30 08:32:47;;;;;;;1.42;0.10;;;11.50;99.90;;;;;;5021597;28;20104;-87
2023/10/30 08:35:17;;;;;;;2.90;0.22;;;11.60;99.90;;;;;;5028521;28;20068;-91
2023/10/30 08:37:45;;;;;;;1.38;0.20;;;11.70;99.90;;;;;;5018053;28;20065;-88
2023/10/30 08:40:17;;;;;;;4.43;0.20;;;11.70;99.90;;;;;;5018944;28;20491;-89
2023/10/30 08:42:42;;;;;;;2.30;0.10;;;11.80;99.90;;;;;;5020483;28;20421;-87
2023/10/30 08:45:08;;;;;;;2.03;0.13;;;11.90;99.90;;;;;;5020513;28;20054;-87
2023/10/30 08:47:37;;;;;;;1.40;0.10;;;12.00;99.90;;;;;;5020947;28;20091;-89
2023/10/30 08:50:04;;;;;;;2.93;0.20;;;12.20;99.90;;;;;;5022150;28;20029;-88
2023/10/30 08:52:32;;;;;;;1.70;0.10;;;12.20;99.90;;;;;;4998399;28;20537;-88
2023/10/30 08:54:58;;;;;;;2.67;0.30;;;12.20;99.90;;;;;;5009184;28;20056;-88
2023/10/30 08:57:39;;;;;;;1.98;0.20;;;12.30;99.90;;;;;;5007498;28;20120;-89
2023/10/30 09:00:16;;;;;;;2.17;0.20;;;12.20;99.90;;;;;;5001282;28;20121;-89
2023/10/30 09:03:08;;;;;;;2.15;0.20;;;12.20;99.90;;;;;;5021435;28;20060;-92
2023/10/30 09:05:34;;;;;;;2.38;0.10;;;12.20;99.90;;;;;;5006491;28;20452;-90
2023/10/30 09:08:23;;;;;;;1.30;0.13;;;12.10;99.90;;;;;;5027024;28;20130;-91
2023/10/30 09:10:48;;;;;;;2.42;0.20;;;12.20;99.90;;;;;;5021076;28;20476;-89
2023/10/30 09:13:14;;;;;;;1.55;0.10;;;12.20;99.90;;;;;;5019340;28;20058;-87
2023/10/30 09:15:45;;;;;;;4.15;0.20;;;12.20;99.90;;;;;;5004526;28;20029;-90
2023/10/30 09:18:10;;;;;;;1.83;0.20;;;12.20;99.90;;;;;;5036946;28;20048;-86
2023/10/30 09:20:36;;;;;;;1.52;0.40;;;12.30;99.90;;;;;;5034852;28;20187;-89
2023/10/30 09:23:02;;;;;;;2.30;0.10;;;12.50;99.90;;;;;;5017254;28;20022;-87
2023/10/30 09:25:27;;;;;;;3.10;0.20;;;12.50;99.90;;;;;;5021992;28;20064;-89
2023/10/30 09:27:53;;;;;;;2.65;0.60;;;12.60;99.90;;;;;;5003173;28;20030;-87
2023/10/30 09:30:19;;;;;;;3.92;0.20;;;12.80;99.90;;;;;;5022074;28;20034;-89
2023/10/30 09:32:45;;;;;;;3.25;0.43;;;12.90;99.90;;;;;;5017238;28;20108;-89
2023/10/30 09:35:10;;;;;;;3.70;0.20;;;13.00;99.90;;;;;;5018706;28;20136;-89
2023/10/30 09:37:37;;;;;;;1.33;0.20;;;12.90;99.90;;;;;;5033938;28;20033;-88
2023/10/30 09:40:04;;;;;;;1.58;0.10;;;13.10;99.90;;;;;;5024982;28;20034;-89
2023/10/30 09:42:35;;;;;;;2.75;0.20;;;13.20;99.90;;;;;;5018254;28;20029;-89
2023/10/30 09:45:02;;;;;;;3.55;0.20;;;13.20;99.90;;;;;;5002712;28;20077;-89
2023/10/30 09:47:28;;;;;;;5.15;0.60;;;13.20;99.90;;;;;;5037712;28;20034;-89
2023/10/30 09:49:54;;;;;;;1.58;0.17;;;13.10;99.90;;;;;;5018842;28;20115;-90
2023/10/30 09:52:21;;;;;;;1.95;0.10;;;13.20;99.90;;;;;;5018942;28;20037;-89
2023/10/30 09:54:48;;;;;;;3.10;0.20;;;13.20;99.90;;;;;;5035203;28;20036;-92
2023/10/30 09:57:14;;;;;;;2.83;0.30;;;13.20;99.90;;;;;;5018619;28;20029;-92
2023/10/30 09:59:43;;;;;;;1.88;0.10;;;13.20;99.90;;;;;;5003002;28;20044;-89
2023/10/30 10:02:10;;;;;;;1.88;0.10;;;13.20;99.90;;;;;;5016501;28;20034;-91
2023/10/30 10:04:38;;;;;;;1.48;0.10;;;13.20;99.90;;;;;;5007994;28;20017;-89
2023/10/30 10:07:05;;;;;;;1.40;0.10;;;13.30;99.90;;;;;;5002767;28;20496;-91
2023/10/30 10:09:31;;;;;;;1.52;0.15;;;13.30;99.90;;;;;;5018382;28;20096;-91
2023/10/30 10:11:58;;;;;;;1.63;0.10;;;13.40;99.90;;;;;;5006995;28;20060;-92
2023/10/30 10:14:24;;;;;;;2.50;0.20;;;13.40;99.90;;;;;;5024236;28;20236;-89
2023/10/30 10:16:50;;;;;;;1.80;0.17;;;13.40;99.90;;;;;;5019893;28;20278;-88
2023/10/30 10:19:20;;;;;;;2.25;0.30;;;13.40;99.90;;;;;;5019275;28;20048;-89
2023/10/30 10:21:47;;;;;;;;;;;13.50;99.90;;;;;;5018028;28;20461;-88
2023/10/30 10:24:29;;;;;;;2.00;0.10;;;13.50;99.90;;;;;;5020732;28;20000;-89
2023/10/30 10:27:06;;;;;;;1.45;0.10;;;13.60;99.90;;;;;;5017529;28;20022;-89
2023/10/30 10:29:33;;;;;;;2.95;0.20;;;13.50;99.90;;;;;;5016002;28;20033;-88
2023/10/30 10:31:59;;;;;;;1.52;0.10;;;13.50;99.90;;;;;;5019173;28;20045;-88
2023/10/30 10:34:32;;;;;;;1.63;0.10;;;13.60;99.90;;;;;;5022392;28;20040;-88
2023/10/30 10:36:59;;;;;;;1.52;0.10;;;13.60;99.90;;;;;;5017981;28;20044;-90
2023/10/30 10:39:25;;;;;;;0.90;0.20;;;13.60;99.90;;;;;;5023044;28;20073;-89
2023/10/30 10:41:52;;;;;;;2.40;0.20;;;13.60;99.90;;;;;;5036669;28;20018;-90
2023/10/30 10:44:19;;;;;;;2.10;0.13;;;13.60;99.90;;;;;;5001050;28;20060;-87
2023/10/30 10:46:45;;;;;;;1.20;0.10;;;13.50;99.90;;;;;;5019820;28;20120;-90
2023/10/30 10:49:11;;;;;;;2.08;0.17;;;13.60;99.90;;;;;;5004732;28;20134;-86
2023/10/30 10:51:40;;;;;;;1.38;0.20;;;13.70;99.90;;;;;;4996950;28;20045;-89
2023/10/30 10:54:16;;;;;;;1.48;0.10;;;13.60;99.90;;;;;;5017816;28;20029;-91
2023/10/30 10:56:49;;;;;;;1.25;0.10;;;13.60;99.90;;;;;;5002322;28;20030;-90
2023/10/30 10:59:19;;;;;;;3.15;0.20;;;13.80;99.90;;;;;;5001449;28;20497;-87
2023/10/30 11:01:50;;;;;;;1.25;0.32;;;13.80;99.90;;;;;;5018775;28;20026;-88
2023/10/30 11:04:16;;;;;;;1.58;0.10;;;13.90;99.90;;;;;;5015565;28;20034;-88
2023/10/30 11:06:53;;;;;;;1.35;0.10;;;14.10;99.90;;;;;;5027081;28;20084;-89
2023/10/30 11:09:41;;;;;;;1.15;0.10;;;14.20;99.90;;;;;;5015597;28;20037;-87
2023/10/30 11:12:39;;;;;;;3.03;0.20;;;14.10;99.90;;;;;;5030792;28;20045;-88
2023/10/30 11:15:31;;;;;;;1.30;0.10;;;14.10;99.90;;;;;;5020013;28;20029;-89
2023/10/30 11:18:17;;;;;;;1.20;0.15;;;14.30;99.90;;;;;;5032333;28;20039;-87
2023/10/30 11:20:44;;;;;;;2.55;0.20;;;14.40;99.90;;;;;;5002293;28;20231;-87
2023/10/30 11:23:12;;;;;;;2.95;0.20;;;14.50;99.90;;;;;;5035836;28;20083;-88
2023/10/30 11:28:50;;;;;;;1.65;0.25;;;14.30;99.90;;;;;;4999946;28;20042;-89
2023/10/30 11:31:15;;;;;;;1.67;0.30;;;14.40;99.90;;;;;;5035833;28;20041;-89
2023/10/30 11:33:42;;;;;;;1.35;0.10;;;14.40;99.90;;;;;;5005075;28;20029;-89
2023/10/30 11:36:19;;;;;;;3.38;0.20;;;14.40;99.90;;;;;;5007335;28;20687;-89
2023/10/30 11:38:52;;;;;;;0.63;0.10;;;14.20;99.90;;;;;;5004941;28;20029;-86
2023/10/30 11:41:39;;;;;;;1.42;0.10;;;14.30;99.90;;;;;;5023957;28;20152;-91
2023/10/30 11:44:12;;;;;;;3.97;0.22;;;14.30;99.90;;;;;;5007043;28;20041;-88
2023/10/30 11:46:44;;;;;;;0.32;0.00;;;14.30;99.90;;;;;;5022680;28;20103;-88
2023/10/30 11:49:36;;;;;;;1.42;0.15;;;14.30;99.90;;;;;;5025147;28;20068;-90
2023/10/30 11:52:22;;;;;;;0.90;0.20;;;14.20;99.90;;;;;;5019935;28;20106;-90
2023/10/30 11:55:10;;;;;;;0.85;0.10;;;14.10;99.90;;;;;;5040301;28;20080;-87
2023/10/30 11:57:55;;;;;;;2.30;0.10;;;14.10;99.90;;;;;;5014336;28;20049;-91
2023/10/30 12:00:24;;;;;;;0.77;0.10;;;14.20;99.90;;;;;;5020466;28;20037;-90
2023/10/30 12:02:54;;;;;;;1.20;0.05;;;14.00;99.90;;;;;;5003074;28;20025;-89
2023/10/30 12:05:20;;;;;;;0.73;0.10;;;14.10;99.90;;;;;;5003953;28;20040;-90
2023/10/30 12:07:50;;;;;;;1.65;0.10;;;14.00;99.90;;;;;;5007362;28;20087;-90
2023/10/30 12:10:48;;;;;;;3.45;0.40;;;14.00;99.90;;;;;;5037482;28;20042;-88
2023/10/30 12:13:56;;;;;;;0.60;0.10;;;14.10;99.90;;;;;;5004634;28;20117;-91
2023/10/30 12:17:00;;;;;;;1.33;0.20;;;14.10;99.90;;;;;;4998287;28;20291;-92
2023/10/30 12:19:25;;;;;;;1.77;0.17;;;13.90;99.90;;;;;;5003497;28;20037;-88
2023/10/30 12:22:32;;;;;;;1.27;0.10;;;14.10;99.90;;;;;;5021285;28;20555;-90
2023/10/30 12:24:58;;;;;;;0.88;0.10;;;14.20;99.90;;;;;;5018688;28;20030;-89
2023/10/30 12:27:25;;;;;;;1.73;0.25;;;14.20;99.90;;;;;;4987018;28;20464;-87
2023/10/30 12:30:04;;;;;;;0.73;0.10;;;14.30;99.90;;;;;;5016415;28;20041;-89
2023/10/30 12:32:30;;;;;;;1.38;0.10;;;14.30;99.90;;;;;;5001144;28;20152;-87
2023/10/30 12:35:07;;;;;;;2.47;0.20;;;14.20;99.90;;;;;;5020953;28;20116;-91
2023/10/30 12:37:33;;;;;;;0.43;0.10;;;14.10;99.90;;;;;;5019972;28;20036;-89
2023/10/30 12:40:07;;;;;;;1.55;0.10;;;14.10;99.90;;;;;;5025410;28;20026;-89
2023/10/30 12:42:42;;;;;;;1.08;0.05;;;14.10;99.90;;;;;;5006449;28;20480;-87
2023/10/30 12:45:13;;;;;;;1.02;0.10;;;14.10;99.90;;;;;;5032515;28;20041;-87
2023/10/30 12:47:43;;;;;;;2.50;0.10;;;14.10;99.90;;;;;;5021832;28;20029;-88
2023/10/30 12:50:11;;;;;;;1.30;0.10;;;14.10;99.90;;;;;;5036793;28;20421;-89
2023/10/30 12:52:37;;;;;;;1.67;0.10;;;14.20;99.90;;;;;;5020491;28;20044;-89
2023/10/30 12:55:03;;;;;;;1.20;0.00;;;14.20;99.90;;;;;;5020983;28;20022;-90
2023/10/30 12:57:29;;;;;;;1.73;0.17;;;14.20;99.90;;;;;;5021122;28;20029;-89
2023/10/30 12:59:55;;;;;;;2.20;0.20;;;14.20;99.90;;;;;;5003191;28;20373;-90